Time;durP1;ratioP1;P1;durP2;ratioP2;P2;SDS_P1;SDS_P2;PMS_P1;PMS_P2;Temp;Humidity;BMP_temperature;BMP_pressure;BME280_temperature;BME280_humidity;BME280_pressure;Samples;Min_cycle;Max_cycle;Signal;HPM_P1;HPM_P2
2023/07/03 00:02:05;;;;;;;19.45;5.22;;;;;;;15.23;63.87;100951.50;5016860;28;20483;-63
2023/07/03 00:04:35;;;;;;;16.73;4.65;;;;;;;15.22;63.87;100963.25;5025598;28;20037;-63
2023/07/03 00:07:01;;;;;;;17.70;4.80;;;;;;;15.19;64.34;100951.09;5023413;28;20031;-64
2023/07/03 00:09:26;;;;;;;18.92;5.15;;;;;;;15.15;64.30;100949.84;5018012;28;20250;-64
2023/07/03 00:11:52;;;;;;;18.20;4.43;;;;;;;15.10;64.52;100947.75;5015741;28;20120;-63
2023/07/03 00:14:17;;;;;;;17.85;5.07;;;;;;;15.09;64.67;100948.78;5022270;28;20506;-63
2023/07/03 00:16:43;;;;;;;18.13;4.90;;;;;;;15.07;64.68;100942.81;5020189;28;20499;-63
2023/07/03 00:19:09;;;;;;;17.30;5.25;;;;;;;15.05;64.58;100950.19;5022584;28;20633;-64
2023/07/03 00:21:38;;;;;;;19.20;5.15;;;;;;;15.03;64.67;100941.53;5025901;28;20033;-64
2023/07/03 00:24:03;;;;;;;18.52;4.32;;;;;;;15.02;64.56;100941.72;5025028;28;20037;-63
2023/07/03 00:26:29;;;;;;;22.05;5.10;;;;;;;15.00;64.47;100943.78;5027706;28;20083;-63
2023/07/03 00:28:54;;;;;;;19.38;5.03;;;;;;;14.97;65.02;100947.66;5021160;28;20112;-63
2023/07/03 00:31:19;;;;;;;17.02;5.05;;;;;;;14.96;65.08;100946.00;5029174;28;20126;-63
2023/07/03 00:33:44;;;;;;;17.70;4.57;;;;;;;14.92;64.70;100941.25;5027773;28;20040;-63
2023/07/03 00:36:10;;;;;;;19.73;4.70;;;;;;;14.87;64.88;100936.50;5017893;28;20025;-64
2023/07/03 00:38:35;;;;;;;18.92;4.95;;;;;;;14.89;65.46;100945.16;5023975;28;20403;-63
2023/07/03 00:41:00;;;;;;;18.38;4.93;;;;;;;14.87;65.49;100936.50;5023276;28;20046;-64
2023/07/03 00:43:26;;;;;;;16.33;4.63;;;;;;;14.86;65.65;100941.03;5029684;28;20033;-63
2023/07/03 00:45:51;;;;;;;13.35;4.07;;;;;;;14.87;65.64;100939.19;5024017;28;20521;-63
2023/07/03 00:48:17;;;;;;;18.02;5.20;;;;;;;14.86;65.37;100945.56;5030203;28;20018;-63
2023/07/03 00:50:42;;;;;;;19.70;4.90;;;;;;;14.86;65.53;100941.03;5021968;28;20095;-63
2023/07/03 00:53:10;;;;;;;19.95;4.82;;;;;;;14.84;65.81;100939.56;5021863;28;20044;-63
2023/07/03 00:55:36;;;;;;;16.25;4.72;;;;;;;14.82;65.55;100939.78;5024230;28;20040;-63
2023/07/03 00:58:02;;;;;;;19.63;4.35;;;;;;;14.82;65.89;100931.75;5020713;28;20053;-63
2023/07/03 01:00:45;;;;;;;18.73;4.57;;;;;;;14.82;65.89;100938.94;5013328;28;20077;-63
2023/07/03 01:03:22;;;;;;;20.92;4.68;;;;;;;14.79;66.38;100942.84;5017976;28;20120;-64
2023/07/03 01:05:49;;;;;;;20.48;5.00;;;;;;;14.75;66.34;100935.41;5022461;28;20030;-64
2023/07/03 01:08:15;;;;;;;16.42;4.72;;;;;;;14.76;66.59;100934.38;5018622;28;20030;-63
2023/07/03 01:10:40;;;;;;;21.08;5.03;;;;;;;14.75;66.63;100930.88;5023563;28;20033;-64
2023/07/03 01:13:10;;;;;;;20.35;5.03;;;;;;;14.73;67.07;100932.06;5019945;28;20086;-63
2023/07/03 01:15:40;;;;;;;20.80;4.82;;;;;;;14.73;66.86;100924.06;5019005;28;20026;-64
2023/07/03 01:18:07;;;;;;;17.77;4.45;;;;;;;14.73;67.30;100940.94;5028764;28;20038;-62
2023/07/03 01:20:39;;;;;;;22.40;4.90;;;;;;;14.73;67.57;100942.78;5021088;28;20034;-63
2023/07/03 01:23:18;;;;;;;24.08;5.25;;;;;;;14.72;67.54;100944.63;5024155;28;20029;-63
2023/07/03 01:25:47;;;;;;;17.75;4.60;;;;;;;14.69;67.58;100938.84;5016904;28;20511;-63
2023/07/03 01:28:16;;;;;;;20.05;4.80;;;;;;;14.69;68.04;100933.50;5018473;28;20029;-63
2023/07/03 01:30:42;;;;;;;25.48;5.05;;;;;;;14.69;67.83;100928.16;5010344;28;20018;-64
2023/07/03 01:33:14;;;;;;;22.50;4.97;;;;;;;14.67;68.52;100936.38;5025301;28;20499;-63
2023/07/03 01:35:40;;;;;;;23.20;4.90;;;;;;;14.67;68.52;100940.88;5020195;28;20111;-64
2023/07/03 01:38:06;;;;;;;26.90;4.95;;;;;;;14.65;68.39;100937.59;5018242;28;20049;-64
2023/07/03 01:40:32;;;;;;;21.90;4.28;;;;;;;14.64;68.77;100938.59;5027920;28;20026;-63
2023/07/03 01:42:58;;;;;;;22.95;4.72;;;;;;;14.61;68.91;100933.66;5023091;28;20033;-64
2023/07/03 01:45:23;;;;;;;23.95;5.65;;;;;;;14.60;69.20;100929.31;5027927;28;20025;-63
2023/07/03 01:47:48;;;;;;;26.23;4.90;;;;;;;14.58;69.20;100929.53;5024166;28;20018;-63
2023/07/03 01:50:18;;;;;;;18.20;4.72;;;;;;;14.59;69.30;100938.38;5022093;28;20021;-65
2023/07/03 01:52:46;;;;;;;;;;;;;;;14.59;69.67;100935.69;5022600;28;20022;-64
2023/07/03 01:55:24;;;;;;;21.97;5.13;;;;;;;14.56;69.75;100937.72;5021899;28;19919;-63
2023/07/03 01:58:16;;;;;;;23.23;5.38;;;;;;;14.55;70.03;100930.75;5015745;28;20268;-64
2023/07/03 02:00:55;;;;;;;25.48;5.43;;;;;;;14.52;70.39;100923.13;5015632;28;20022;-64
2023/07/03 02:03:40;;;;;;;24.95;5.50;;;;;;;14.51;70.61;100926.81;5021096;28;20442;-63
2023/07/03 02:06:15;;;;;;;21.88;4.70;;;;;;;14.51;70.47;100916.13;5020831;28;20017;-63
2023/07/03 02:08:41;;;;;;;22.33;5.43;;;;;;;14.49;70.88;100923.50;5024140;28;20029;-63
2023/07/03 02:11:15;;;;;;;24.25;4.85;;;;;;;14.43;71.06;100908.22;5024965;28;20250;-63
2023/07/03 02:13:40;;;;;;;29.15;5.97;;;;;;;14.47;71.05;100920.19;5018137;28;20518;-63
2023/07/03 02:16:06;;;;;;;24.15;5.05;;;;;;;14.45;71.59;100916.88;5024117;28;20017;-63
2023/07/03 02:18:31;;;;;;;22.08;5.05;;;;;;;14.44;71.77;100922.41;5016159;28;20029;-64
2023/07/03 02:20:56;;;;;;;27.27;5.45;;;;;;;14.42;71.76;100916.41;5017099;28;20022;-63
2023/07/03 02:23:22;;;;;;;28.75;5.80;;;;;;;14.41;71.93;100918.25;5018338;28;20060;-63
2023/07/03 02:25:47;;;;;;;25.23;5.82;;;;;;;14.40;72.52;100913.09;5022746;28;20039;-64
2023/07/03 02:28:12;;;;;;;28.60;5.32;;;;;;;14.38;72.57;100904.44;5022122;28;20418;-63
2023/07/03 02:30:38;;;;;;;27.75;5.43;;;;;;;14.37;73.13;100906.31;5031186;28;20023;-63
2023/07/03 02:33:03;;;;;;;22.70;5.32;;;;;;;14.34;73.41;100903.19;5021938;28;20022;-63
2023/07/03 02:35:28;;;;;;;27.75;5.95;;;;;;;14.33;73.69;100899.69;5026239;28;20090;-64
2023/07/03 02:37:53;;;;;;;30.73;5.70;;;;;;;14.29;73.71;100901.09;5028749;28;20052;-63
2023/07/03 02:40:19;;;;;;;26.60;5.70;;;;;;;14.24;74.26;100901.69;5024021;28;20426;-63
2023/07/03 02:42:44;;;;;;;28.95;6.22;;;;;;;14.24;74.33;100903.53;5023987;28;20022;-63
2023/07/03 02:45:10;;;;;;;27.90;5.85;;;;;;;14.19;75.16;100903.28;5017032;28;20071;-62
2023/07/03 02:47:36;;;;;;;28.55;6.38;;;;;;;14.16;75.33;100893.78;5022810;28;20029;-64
2023/07/03 02:50:06;;;;;;;31.63;6.53;;;;;;;14.10;75.84;100891.91;5024544;28;20017;-63
2023/07/03 02:52:31;;;;;;;;;;;;;;;14.10;75.79;100891.06;5016488;28;20106;-63
2023/07/03 02:54:56;;;;;;;31.17;6.57;;;;;;;14.05;76.18;100893.50;5017135;28;19937;-63
2023/07/03 02:57:22;;;;;;;33.47;6.30;;;;;;;14.00;76.78;100890.59;5018118;28;20403;-63
2023/07/03 02:59:47;;;;;;;34.22;6.22;;;;;;;13.99;77.00;100888.94;5025826;28;20052;-64
2023/07/03 03:02:12;;;;;;;26.67;5.75;;;;;;;13.94;77.46;100893.00;5025534;28;20683;-63
2023/07/03 03:04:37;;;;;;;29.10;6.60;;;;;;;13.91;77.63;100893.38;5025413;28;20025;-63
2023/07/03 03:07:03;;;;;;;32.25;6.55;;;;;;;13.88;78.03;100892.94;5025021;28;20029;-63
2023/07/03 03:09:28;;;;;;;25.27;6.80;;;;;;;13.82;78.54;100891.84;5008356;28;20044;-63
2023/07/03 03:11:54;;;;;;;29.33;6.05;;;;;;;13.77;78.85;100888.94;5016645;28;20068;-63
2023/07/03 03:14:19;;;;;;;29.55;6.45;;;;;;;13.73;78.47;100879.66;5018965;28;20025;-63
2023/07/03 03:16:44;;;;;;;25.90;6.80;;;;;;;13.69;79.01;100890.91;5021909;28;20029;-63
2023/07/03 03:19:10;;;;;;;29.55;6.20;;;;;;;13.67;79.46;100888.41;5020078;28;20022;-64
2023/07/03 03:21:35;;;;;;;30.42;7.10;;;;;;;13.62;79.57;100886.31;5025202;28;20021;-64
2023/07/03 03:24:02;;;;;;;32.15;6.72;;;;;;;13.61;79.82;100886.50;5025090;28;20128;-63
2023/07/03 03:26:27;;;;;;;26.15;6.78;;;;;;;13.60;80.22;100887.53;5022518;28;20029;-63
2023/07/03 03:28:53;;;;;;;29.25;6.57;;;;;;;13.58;80.71;100882.34;5022567;28;20083;-63
2023/07/03 03:31:18;;;;;;;33.88;6.57;;;;;;;13.56;81.04;100883.56;5013960;28;20104;-63
2023/07/03 03:33:43;;;;;;;29.60;6.80;;;;;;;13.55;80.85;100879.25;5024516;28;20075;-63
2023/07/03 03:36:08;;;;;;;30.38;6.47;;;;;;;13.53;81.25;100878.59;5014904;28;20038;-63
2023/07/03 03:38:34;;;;;;;30.38;6.32;;;;;;;13.53;81.48;100892.78;5007624;28;20025;-63
2023/07/03 03:41:02;;;;;;;32.60;6.60;;;;;;;13.51;81.67;100891.31;5022436;28;20030;-64
2023/07/03 03:43:27;;;;;;;33.47;7.20;;;;;;;13.49;81.83;100888.00;5022876;28;20240;-64
2023/07/03 03:45:57;;;;;;;33.45;6.65;;;;;;;13.47;82.05;100895.38;5021596;28;20473;-63
2023/07/03 03:48:23;;;;;;;31.50;6.68;;;;;;;13.45;82.49;100897.41;5024236;28;20025;-64
2023/07/03 03:50:49;;;;;;;32.35;6.82;;;;;;;13.39;82.63;100892.81;5030076;28;20545;-63
2023/07/03 03:53:14;;;;;;;28.00;6.35;;;;;;;13.37;83.02;100892.19;5024537;28;20065;-64
2023/07/03 03:55:39;;;;;;;30.95;6.75;;;;;;;13.34;83.66;100898.72;5024918;28;20018;-64
2023/07/03 03:58:05;;;;;;;33.05;7.15;;;;;;;13.30;83.43;100895.59;5026510;28;20025;-63
2023/07/03 04:00:30;;;;;;;30.83;7.05;;;;;;;13.29;83.78;100895.75;5018227;28;20021;-63
2023/07/03 04:02:55;;;;;;;33.25;7.00;;;;;;;13.30;84.22;100895.59;5012531;28;20099;-63
2023/07/03 04:05:21;;;;;;;33.88;7.47;;;;;;;13.29;84.48;100890.44;5019215;28;20026;-63
2023/07/03 04:07:46;;;;;;;34.35;7.25;;;;;;;13.28;85.02;100897.59;5024254;28;20017;-63
2023/07/03 04:10:12;;;;;;;37.30;6.95;;;;;;;13.29;85.32;100893.09;5024837;28;20495;-63
2023/07/03 04:12:37;;;;;;;36.50;7.22;;;;;;;13.30;85.50;100895.59;5023313;28;20037;-63
2023/07/03 04:15:03;;;;;;;33.13;6.50;;;;;;;13.33;85.59;100897.06;5023325;28;20213;-63
2023/07/03 04:17:28;;;;;;;31.20;6.95;;;;;;;13.36;85.24;100903.88;5028881;28;20045;-63
2023/07/03 04:19:53;;;;;;;35.05;7.32;;;;;;;13.37;85.81;100901.00;5022165;28;20049;-63
2023/07/03 04:22:19;;;;;;;34.97;7.57;;;;;;;13.38;85.63;100893.84;5025253;28;20030;-63
2023/07/03 04:24:44;;;;;;;35.10;8.20;;;;;;;13.40;85.82;100897.16;5027933;28;20029;-63
2023/07/03 04:27:10;;;;;;;40.22;7.53;;;;;;;13.42;85.89;100897.78;5022196;28;20034;-63
2023/07/03 04:29:36;;;;;;;33.00;6.80;;;;;;;13.43;85.87;100899.44;5016033;28;20021;-63
2023/07/03 04:32:02;;;;;;;35.72;7.88;;;;;;;13.46;85.98;100901.72;5018663;28;20025;-63
2023/07/03 04:34:27;;;;;;;35.83;7.25;;;;;;;13.48;86.40;100910.38;5030547;28;20111;-63
2023/07/03 04:36:52;;;;;;;33.80;7.88;;;;;;;13.50;86.30;100916.34;5024624;28;20022;-63
2023/07/03 04:39:18;;;;;;;38.45;8.60;;;;;;;13.47;86.74;100922.06;5026374;28;20075;-63
2023/07/03 04:41:43;;;;;;;30.42;7.53;;;;;;;13.46;87.40;100920.41;5029286;28;20487;-64
2023/07/03 04:44:12;;;;;;;34.15;7.68;;;;;;;13.43;87.75;100920.78;5030561;28;20084;-63
2023/07/03 04:46:38;;;;;;;37.10;7.28;;;;;;;13.41;87.94;100922.81;5014279;28;20026;-62
2023/07/03 04:49:04;;;;;;;32.10;7.38;;;;;;;13.37;88.53;100925.03;5025935;28;20029;-63
2023/07/03 04:51:30;;;;;;;42.60;8.55;;;;;;;13.38;88.46;100923.19;5027968;28;20029;-64
2023/07/03 04:53:57;;;;;;;31.63;7.28;;;;;;;13.36;89.16;100928.69;5027103;28;20014;-63
2023/07/03 04:56:24;;;;;;;36.00;8.55;;;;;;;13.37;89.33;100926.88;5014071;28;20033;-63
2023/07/03 04:58:49;;;;;;;40.25;7.03;;;;;;;13.36;89.61;100926.03;5017307;28;20193;-64
2023/07/03 05:01:14;;;;;;;30.15;8.18;;;;;;;13.40;89.19;100937.16;5018273;28;20724;-63
2023/07/03 05:03:40;;;;;;;39.33;8.35;;;;;;;13.39;89.41;100923.00;5024589;28;20025;-63
2023/07/03 05:06:05;;;;;;;37.83;7.68;;;;;;;13.44;89.92;100930.44;5018969;28;20029;-63
2023/07/03 05:08:31;;;;;;;42.67;8.15;;;;;;;13.48;90.02;100929.88;5026562;28;20037;-64
2023/07/03 05:10:58;;;;;;;34.20;7.75;;;;;;;13.51;90.06;100926.00;5029650;28;20033;-63
2023/07/03 05:13:23;;;;;;;35.88;8.30;;;;;;;13.54;89.80;100929.13;5025590;28;20028;-63
2023/07/03 05:15:49;;;;;;;43.67;8.25;;;;;;;13.58;89.34;100930.38;5028769;28;20407;-64
2023/07/03 05:18:14;;;;;;;37.08;7.88;;;;;;;13.61;89.37;100939.88;5019944;28;20052;-63
2023/07/03 05:20:39;;;;;;;35.47;7.90;;;;;;;13.65;89.55;100930.47;5013754;28;20079;-64
2023/07/03 05:23:04;;;;;;;43.58;8.93;;;;;;;13.67;89.53;100936.47;5014975;28;20053;-63
2023/07/03 05:25:30;;;;;;;38.90;8.00;;;;;;;13.72;89.30;100942.06;5023774;28;20395;-63
2023/07/03 05:27:55;;;;;;;34.30;7.80;;;;;;;13.74;89.66;100937.34;5020953;28;20100;-63
2023/07/03 05:30:20;;;;;;;30.02;7.00;;;;;;;13.79;89.29;100939.44;5025534;28;20491;-63
2023/07/03 05:32:46;;;;;;;30.90;7.72;;;;;;;13.81;89.43;100946.25;5031146;28;20033;-64
2023/07/03 05:35:11;;;;;;;37.20;7.38;;;;;;;13.84;89.18;100948.53;5031091;28;20030;-63
2023/07/03 05:37:37;;;;;;;32.45;7.97;;;;;;;13.86;88.79;100948.34;5022874;28;20053;-63
2023/07/03 05:40:05;;;;;;;35.45;7.15;;;;;;;13.89;88.64;100954.16;5026643;28;20025;-64
2023/07/03 05:42:30;;;;;;;27.88;6.85;;;;;;;13.92;88.48;100945.78;5017835;28;20025;-63
2023/07/03 05:44:56;;;;;;;31.50;6.90;;;;;;;13.96;88.11;100959.56;5012355;28;20091;-64
2023/07/03 05:47:21;;;;;;;27.83;6.72;;;;;;;13.99;87.91;100953.00;5026330;28;20095;-63
2023/07/03 05:49:48;;;;;;;31.17;7.20;;;;;;;14.01;88.10;100959.81;5028740;28;20032;-63
2023/07/03 05:52:13;;;;;;;32.67;7.28;;;;;;;14.03;87.85;100964.97;5025523;28;20025;-64
2023/07/03 05:54:39;;;;;;;32.38;7.72;;;;;;;14.04;87.44;100959.44;5026996;28;20059;-63
2023/07/03 05:57:07;;;;;;;28.00;7.45;;;;;;;14.04;87.50;100955.94;5026980;28;20034;-63
2023/07/03 05:59:34;;;;;;;31.00;7.00;;;;;;;14.07;87.22;100968.91;5023457;28;20025;-63
2023/07/03 06:01:59;;;;;;;29.52;7.57;;;;;;;14.07;87.32;100967.06;5025570;28;20021;-63
2023/07/03 06:04:25;;;;;;;32.20;7.25;;;;;;;14.08;87.38;100968.72;5028196;28;20059;-63
2023/07/03 06:06:55;;;;;;;29.80;7.35;;;;;;;14.12;87.42;100974.50;5019228;28;20499;-63
2023/07/03 06:09:21;;;;;;;27.48;6.57;;;;;;;14.13;87.12;100970.81;5012338;28;20510;-64
2023/07/03 06:11:47;;;;;;;31.63;7.38;;;;;;;14.13;87.36;100968.13;5027205;28;20039;-64
2023/07/03 06:14:15;;;;;;;27.92;6.88;;;;;;;14.14;87.35;100980.47;5030210;28;20108;-63
2023/07/03 06:16:42;;;;;;;32.20;7.53;;;;;;;14.13;87.26;100963.63;5021302;28;20056;-63
2023/07/03 06:19:07;;;;;;;31.33;6.72;;;;;;;14.16;87.01;100973.09;5022673;28;20029;-63
2023/07/03 06:21:32;;;;;;;32.55;7.60;;;;;;;14.21;86.65;100973.38;5028169;28;20025;-63
2023/07/03 06:23:58;;;;;;;27.25;6.80;;;;;;;14.25;86.66;100966.63;5022193;28;20605;-63
2023/07/03 06:26:23;;;;;;;33.60;7.10;;;;;;;14.32;86.38;100978.19;5024202;28;20036;-63
2023/07/03 06:28:48;;;;;;;26.52;7.07;;;;;;;14.38;86.29;100980.09;5026246;28;20029;-63
2023/07/03 06:31:14;;;;;;;31.35;8.07;;;;;;;14.47;86.66;100967.47;5025359;28;20033;-63
2023/07/03 06:33:39;;;;;;;28.00;6.82;;;;;;;14.53;86.28;100958.69;5015244;28;20116;-63
2023/07/03 06:36:04;;;;;;;30.05;7.40;;;;;;;14.59;85.88;100981.97;5025885;28;20045;-63
2023/07/03 06:38:29;;;;;;;33.05;7.38;;;;;;;14.63;85.72;100977.03;5017275;28;20033;-63
2023/07/03 06:40:56;;;;;;;28.73;7.47;;;;;;;14.66;85.28;100969.47;5015576;28;20112;-64
2023/07/03 06:43:22;;;;;;;40.15;8.10;;;;;;;14.70;85.54;100968.03;5021397;28;20041;-64
2023/07/03 06:45:47;;;;;;;29.08;7.32;;;;;;;14.73;85.00;100964.16;5025236;28;20029;-63
2023/07/03 06:48:12;;;;;;;30.55;7.03;;;;;;;14.77;84.45;100968.13;5022080;28;20489;-63
2023/07/03 06:50:38;;;;;;;32.70;7.03;;;;;;;14.81;84.41;100964.03;5019506;28;20395;-63
2023/07/03 06:53:03;;;;;;;32.25;6.90;;;;;;;14.81;84.04;100975.56;5017994;28;20036;-63
2023/07/03 06:55:28;;;;;;;24.58;6.47;;;;;;;14.81;84.11;100970.22;5024747;28;20502;-64
2023/07/03 06:57:53;;;;;;;28.40;6.20;;;;;;;14.80;84.01;100973.06;5018782;28;20045;-63
2023/07/03 07:00:19;;;;;;;25.83;6.35;;;;;;;14.77;83.52;100978.81;5018928;28;20041;-63
2023/07/03 07:02:44;;;;;;;28.58;7.05;;;;;;;14.67;83.96;100978.31;5021620;28;20498;-63
2023/07/03 07:05:09;;;;;;;27.05;6.47;;;;;;;14.57;84.55;100984.81;5021923;28;20992;-63
2023/07/03 07:07:35;;;;;;;32.92;6.97;;;;;;;14.49;85.39;100981.47;5024712;28;20045;-64
2023/07/03 07:10:00;;;;;;;32.03;7.35;;;;;;;14.48;86.44;100990.50;5023630;28;20028;-63
2023/07/03 07:12:25;;;;;;;30.83;6.82;;;;;;;14.48;86.69;100990.50;5014492;28;20025;-63
2023/07/03 07:14:51;;;;;;;35.88;7.57;;;;;;;14.51;87.14;100990.13;5022882;28;20021;-63
2023/07/03 07:17:16;;;;;;;23.85;6.60;;;;;;;14.52;87.42;100989.94;5025511;28;20026;-63
2023/07/03 07:19:41;;;;;;;27.75;7.40;;;;;;;14.53;87.60;100991.56;5017607;28;20021;-63
2023/07/03 07:22:06;;;;;;;28.45;6.85;;;;;;;14.60;87.19;100996.16;5019976;28;20025;-63
2023/07/03 07:24:32;;;;;;;25.85;6.13;;;;;;;14.66;86.35;101003.38;5022474;28;20071;-63
2023/07/03 07:26:59;;;;;;;23.40;6.22;;;;;;;14.74;86.50;100987.19;5026374;28;20422;-63
2023/07/03 07:29:25;;;;;;;22.85;5.80;;;;;;;14.82;85.54;100992.41;5026468;28;20017;-63
2023/07/03 07:31:53;;;;;;;24.75;6.43;;;;;;;14.95;85.31;100994.34;5021079;28;20033;-63
2023/07/03 07:34:19;;;;;;;21.63;5.85;;;;;;;15.07;84.96;100990.97;5024192;28;20479;-63
2023/07/03 07:36:44;;;;;;;29.25;5.90;;;;;;;15.22;84.12;100998.03;5026175;28;20025;-63
2023/07/03 07:39:09;;;;;;;21.50;5.95;;;;;;;15.32;83.47;100996.63;5016774;28;20415;-63
2023/07/03 07:41:35;;;;;;;21.90;5.85;;;;;;;15.44;83.18;101002.28;5024056;28;20510;-63
2023/07/03 07:44:01;;;;;;;27.35;5.88;;;;;;;15.54;81.64;100992.00;5017119;28;20029;-63
2023/07/03 07:46:29;;;;;;;24.15;5.75;;;;;;;15.65;81.91;101014.75;5019810;28;20037;-63
2023/07/03 07:48:57;;;;;;;25.58;5.53;;;;;;;15.66;80.49;101003.03;5021110;28;20022;-64
2023/07/03 07:51:24;;;;;;;25.02;6.63;;;;;;;15.65;80.21;100998.69;5025281;28;20033;-63
2023/07/03 07:53:49;;;;;;;28.95;6.75;;;;;;;15.67;78.78;101007.34;5020436;28;20033;-63
2023/07/03 07:56:15;;;;;;;28.25;6.00;;;;;;;15.64;78.74;100999.72;5024560;28;20021;-63
2023/07/03 07:58:40;;;;;;;29.13;6.00;;;;;;;15.58;78.63;100998.66;5021992;28;20609;-63
2023/07/03 08:01:06;;;;;;;28.40;6.63;;;;;;;15.52;78.54;101009.28;5021470;28;20037;-63
2023/07/03 08:03:31;;;;;;;23.17;5.97;;;;;;;15.49;78.65;101010.53;5024173;28;20483;-63
2023/07/03 08:06:03;;;;;;;19.80;5.50;;;;;;;15.47;79.08;101016.06;5019953;28;20613;-63
2023/07/03 08:08:30;;;;;;;23.77;5.65;;;;;;;15.49;78.66;101016.69;5018250;28;20022;-63
2023/07/03 08:10:57;;;;;;;19.30;5.05;;;;;;;15.51;78.26;101011.16;5020583;28;20063;-62
2023/07/03 08:13:23;;;;;;;21.88;5.43;;;;;;;15.52;77.56;101015.47;5014109;28;20029;-63
2023/07/03 08:15:49;;;;;;;23.80;5.22;;;;;;;15.51;77.72;101008.47;5020939;28;20018;-63
2023/07/03 08:18:15;;;;;;;22.98;4.95;;;;;;;15.57;77.69;101013.03;5017575;28;20040;-62
2023/07/03 08:20:42;;;;;;;18.70;5.05;;;;;;;15.57;77.11;101013.03;5018505;28;20399;-63
2023/07/03 08:23:07;;;;;;;17.85;4.60;;;;;;;15.59;76.37;101005.66;5023315;28;20029;-63
2023/07/03 08:25:33;;;;;;;22.95;4.75;;;;;;;15.61;75.91;101014.34;5023008;28;20025;-63
2023/07/03 08:27:58;;;;;;;19.35;4.93;;;;;;;15.66;75.39;101021.75;5024256;28;20021;-63
2023/07/03 08:30:23;;;;;;;23.70;4.95;;;;;;;15.71;75.57;101025.50;5021416;28;20021;-63
2023/07/03 08:32:48;;;;;;;21.35;4.57;;;;;;;15.77;75.52;101021.19;5017374;28;20057;-63
2023/07/03 08:35:14;;;;;;;19.13;4.60;;;;;;;15.87;74.60;101026.16;5025724;28;20062;-64
2023/07/03 08:37:39;;;;;;;20.05;4.35;;;;;;;15.96;73.52;101038.38;5029445;28;20037;-64
2023/07/03 08:40:06;;;;;;;17.20;4.32;;;;;;;16.06;72.51;101038.78;5024286;28;20025;-64
2023/07/03 08:42:54;;;;;;;18.10;3.92;;;;;;;16.11;72.80;101044.38;5029786;28;20452;-63
2023/07/03 08:45:23;;;;;;;21.53;5.07;;;;;;;16.18;71.49;101037.16;5021681;28;20067;-64
2023/07/03 08:47:51;;;;;;;21.13;4.32;;;;;;;16.23;71.80;101042.78;5025572;28;20315;-63
2023/07/03 08:50:20;;;;;;;19.92;4.85;;;;;;;16.29;71.82;101039.28;5028252;28;20017;-63
2023/07/03 08:52:49;;;;;;;16.85;4.68;;;;;;;16.31;70.58;101039.91;5024607;28;20116;-63
2023/07/03 08:55:22;;;;;;;20.85;4.55;;;;;;;16.27;69.92;101032.47;5025984;28;20033;-64
2023/07/03 08:57:47;;;;;;;18.02;4.03;;;;;;;16.28;69.59;101040.31;5021610;28;20079;-63
2023/07/03 09:00:13;;;;;;;21.20;4.70;;;;;;;16.29;69.31;101035.78;5021897;28;20033;-63
2023/07/03 09:03:00;;;;;;;16.77;4.22;;;;;;;16.33;69.04;101040.50;5015074;28;20045;-63
2023/07/03 09:06:04;;;;;;;18.63;4.78;;;;;;;16.41;68.53;101051.03;5024458;28;20148;-64
2023/07/03 09:08:54;;;;;;;15.02;3.70;;;;;;;16.53;68.90;101045.91;4982368;28;20038;-64
2023/07/03 09:11:21;;;;;;;16.92;4.22;;;;;;;16.57;67.16;101049.84;4985905;28;20034;-63
2023/07/03 09:13:51;;;;;;;19.67;3.85;;;;;;;16.60;67.16;101041.38;5011807;28;20079;-63
2023/07/03 09:16:21;;;;;;;15.15;4.15;;;;;;;16.62;66.59;101041.16;5026459;28;20037;-63
2023/07/03 09:19:02;;;;;;;18.65;4.03;;;;;;;16.66;66.59;101045.13;5026956;28;20032;-63
2023/07/03 09:21:30;;;;;;;13.85;3.45;;;;;;;16.64;66.09;101042.63;5019041;28;20043;-63
2023/07/03 09:24:18;;;;;;;13.25;3.13;;;;;;;16.57;65.38;101052.50;5020168;28;20069;-63
2023/07/03 09:26:59;;;;;;;14.60;3.60;;;;;;;16.55;64.76;101053.75;5024282;28;20098;-63
2023/07/03 09:29:26;;;;;;;15.52;3.90;;;;;;;16.46;64.69;101047.75;5019670;28;20029;-64
2023/07/03 09:31:52;;;;;;;13.35;3.97;;;;;;;16.39;65.05;101049.59;5022690;28;20025;-63
2023/07/03 09:34:19;;;;;;;19.45;4.55;;;;;;;16.35;65.77;101049.19;5027480;28;20025;-64
2023/07/03 09:36:44;;;;;;;18.85;4.30;;;;;;;16.33;65.38;101047.72;5026810;28;20057;-63
2023/07/03 09:39:17;;;;;;;17.50;4.05;;;;;;;16.30;65.61;101046.28;5024817;28;20056;-63
2023/07/03 09:41:43;;;;;;;16.90;4.85;;;;;;;16.28;65.63;101055.56;5029218;28;20017;-63
2023/07/03 09:44:13;;;;;;;14.55;4.70;;;;;;;16.27;66.18;101060.09;5020498;28;20427;-63
2023/07/03 09:46:39;;;;;;;17.73;3.72;;;;;;;16.26;65.76;101061.13;5028178;28;20086;-63
2023/07/03 09:49:13;;;;;;;16.88;4.93;;;;;;;16.23;65.79;101056.16;5028691;28;20440;-64
2023/07/03 09:51:39;;;;;;;18.48;4.35;;;;;;;16.26;65.83;101061.13;5027385;28;20255;-64
2023/07/03 09:54:18;;;;;;;14.85;4.80;;;;;;;16.24;65.70;101073.06;5030999;28;20576;-64
2023/07/03 09:56:43;;;;;;;15.73;4.65;;;;;;;16.25;65.85;101067.50;5021748;28;20026;-64
2023/07/03 09:59:09;;;;;;;21.73;5.10;;;;;;;16.23;66.03;101066.06;5018005;28;20056;-63
2023/07/03 10:01:38;;;;;;;21.67;4.82;;;;;;;16.25;66.79;101055.97;5019803;28;20530;-64
2023/07/03 10:04:04;;;;;;;21.00;4.97;;;;;;;16.32;67.25;101056.81;5019266;28;20041;-64
2023/07/03 10:06:30;;;;;;;22.23;4.80;;;;;;;16.51;67.73;101060.56;5015681;28;20091;-64
2023/07/03 10:09:00;;;;;;;17.08;4.57;;;;;;;16.71;67.92;101048.00;5020059;28;20422;-64
2023/07/03 10:11:46;;;;;;;17.60;4.63;;;;;;;17.11;68.03;101050.69;5021978;28;20029;-64
2023/07/03 10:14:17;;;;;;;22.35;5.40;;;;;;;17.62;67.90;101046.22;5020381;28;20033;-64
2023/07/03 10:16:43;;;;;;;23.08;4.80;;;;;;;17.85;66.58;101050.31;5022767;28;20495;-64
2023/07/03 10:19:10;;;;;;;18.63;4.30;;;;;;;17.78;63.44;101044.97;5030298;28;20033;-64
2023/07/03 10:21:38;;;;;;;15.27;4.00;;;;;;;17.88;63.13;101044.50;5018577;28;20601;-64
2023/07/03 10:24:05;;;;;;;20.70;4.57;;;;;;;17.92;62.02;101061.84;5023458;28;20032;-64
2023/07/03 10:26:38;;;;;;;17.67;4.38;;;;;;;18.06;62.52;101058.06;5020961;28;20105;-64
2023/07/03 10:29:44;;;;;;;15.60;4.05;;;;;;;18.32;60.78;101075.09;5021252;28;20112;-64
2023/07/03 10:32:13;;;;;;;15.20;4.43;;;;;;;18.45;59.24;101062.41;5004499;28;20104;-64
2023/07/03 10:34:47;;;;;;;14.93;4.00;;;;;;;18.52;58.75;101063.19;5005894;28;20126;-64
2023/07/03 10:37:13;;;;;;;16.00;3.78;;;;;;;18.57;58.05;101067.91;5013631;28;20033;-64
2023/07/03 10:40:12;;;;;;;19.98;4.50;;;;;;;18.71;57.45;101058.72;5023196;28;20036;-64
2023/07/03 10:42:56;;;;;;;13.98;3.53;;;;;;;18.74;56.24;101066.34;5020558;28;20040;-64
2023/07/03 10:45:22;;;;;;;14.60;3.80;;;;;;;18.53;55.30;101047.88;5020342;28;20079;-64
2023/07/03 10:48:00;;;;;;;14.45;3.30;;;;;;;18.36;56.06;101066.38;5025074;28;20037;-64
2023/07/03 10:50:31;;;;;;;22.23;4.38;;;;;;;18.21;56.32;101066.69;5026606;28;20116;-64
2023/07/03 10:53:12;;;;;;;15.18;3.58;;;;;;;17.95;56.56;101059.59;5027999;28;20051;-64
2023/07/03 10:55:42;;;;;;;11.75;3.20;;;;;;;17.91;56.64;101073.63;5025933;28;20032;-64
2023/07/03 10:58:31;;;;;;;13.93;3.00;;;;;;;17.94;56.73;101081.28;5018565;28;20496;-64
2023/07/03 11:01:27;;;;;;;12.10;2.60;;;;;;;18.08;55.12;101074.81;5017516;28;20030;-64
2023/07/03 11:04:04;;;;;;;14.40;3.20;;;;;;;18.41;55.14;101066.56;5021870;28;21569;-64
2023/07/03 11:06:38;;;;;;;10.23;2.75;;;;;;;18.75;54.22;101070.69;5020134;28;20110;-64
2023/07/03 11:09:27;;;;;;;10.90;2.83;;;;;;;18.96;52.11;101058.75;5018821;28;20032;-64
2023/07/03 11:12:12;;;;;;;10.38;2.40;;;;;;;19.20;51.88;101065.16;5020047;28;20179;-65
2023/07/03 11:15:03;;;;;;;11.95;2.67;;;;;;;19.47;51.20;101080.00;5020609;28;20076;-64
2023/07/03 11:17:38;;;;;;;8.48;2.15;;;;;;;19.37;49.09;101058.16;5021318;28;20026;-64
2023/07/03 11:20:08;;;;;;;16.25;2.72;;;;;;;19.32;49.75;101060.66;5023809;28;20045;-63
2023/07/03 11:22:49;;;;;;;12.55;2.80;;;;;;;19.42;49.71;101073.63;5021029;28;20112;-64